»·PEaware :: CGVZB EGLL-LIMJ

CGVZB :: EGLL-LIMJ

FLIGHT INFORMATION

Flight Status: Arrived
Operator: Unknown
More flights by this operator :: More flights under this callsign
Pilot: Alan S. (10569)
Aircraft: AIRBUS A330
(A330)
More flights by this aircraft type
Origin: EGLL Heathrow
United Kingdom
Destination: LIMJ Sestri
Italy
More flights between these airports :: More routes between these airports
Route: EGll/27R MID4F MID UL612 OGULO UQ223 LURAG TESTO ANAKI ANA1F RWY28
File this flight plan on PilotEdge
Remarks:
Altitude:
(Current/Filed)
37,000ft
Speed:
(Current/Filed)
480kts
Departed: 03-Mar-17 05:26 PM
Arrived: 03-Mar-17 07:04 PM
Distance/Time
Traveled:
564nm/1:37
Distance/Time
To Go:
Arrived

Flight Plot

Page will automatically refresh every two minutes.

Flight plan parsing failed; only flown route is shown


Map Options




Map Legend


Flown Route
Filed Route
Departure Airport
Arrival Airport
Navaid (VOR, NDB)
Fix

Horizontal Profiles

Position Reports

Time Latitude Longitude Heading Altitude Ground
Speed
03-Mar-17 16:39 51.472521 -0.446558 269 88ft 0kts
03-Mar-17 16:40 51.472521 -0.446558 269 88ft 0kts
03-Mar-17 16:41 51.472521 -0.446558 269 88ft 0kts
03-Mar-17 16:42 51.472521 -0.446558 269 88ft 0kts
03-Mar-17 16:43 51.472521 -0.446558 269 88ft 0kts
03-Mar-17 16:44 51.472521 -0.446558 269 88ft 0kts
03-Mar-17 16:45 51.472521 -0.446558 269 88ft 0kts
03-Mar-17 16:46 51.472521 -0.446558 269 88ft 0kts
03-Mar-17 16:47 51.472521 -0.446558 269 88ft 0kts
03-Mar-17 16:48 51.472521 -0.446558 269 88ft 0kts
03-Mar-17 16:49 51.472521 -0.446558 269 88ft 0kts
03-Mar-17 16:50 51.472521 -0.446558 269 88ft 0kts
03-Mar-17 16:51 51.472521 -0.446558 269 88ft 0kts
03-Mar-17 16:52 51.472521 -0.446558 269 88ft 0kts
03-Mar-17 16:53 51.472521 -0.446558 269 88ft 0kts
03-Mar-17 16:54 51.472521 -0.446558 269 88ft 0kts
03-Mar-17 16:55 51.472521 -0.446558 269 88ft 0kts
03-Mar-17 16:56 51.472521 -0.446558 269 88ft 0kts
03-Mar-17 16:57 51.472521 -0.446558 269 88ft 0kts
03-Mar-17 16:58 51.472521 -0.446558 269 88ft 0kts
03-Mar-17 16:59 51.472521 -0.446558 269 88ft 0kts
03-Mar-17 17:00 51.472521 -0.446558 269 88ft 0kts
03-Mar-17 17:01 51.472521 -0.446558 269 88ft 0kts
03-Mar-17 17:02 51.472521 -0.446558 269 88ft 0kts
03-Mar-17 17:03 51.472521 -0.446558 269 88ft 0kts
03-Mar-17 17:04 51.472521 -0.446558 269 88ft 0kts
03-Mar-17 17:05 51.472521 -0.446558 269 88ft 0kts
03-Mar-17 17:06 51.472521 -0.446558 269 88ft 0kts
03-Mar-17 17:07 51.472521 -0.446558 269 88ft 0kts
03-Mar-17 17:08 51.472521 -0.446558 269 88ft 0kts
03-Mar-17 17:09 51.472521 -0.446558 269 88ft 0kts
03-Mar-17 17:10 51.472521 -0.446558 269 88ft 0kts
03-Mar-17 17:11 51.472521 -0.446558 269 88ft 0kts
03-Mar-17 17:12 51.472521 -0.446558 269 88ft 0kts
03-Mar-17 17:13 51.472521 -0.446558 269 88ft 0kts
03-Mar-17 17:14 51.472521 -0.446558 269 88ft 0kts
03-Mar-17 17:15 51.472521 -0.446558 269 88ft 0kts
03-Mar-17 17:16 51.472522 -0.446436 269 88ft 0kts
03-Mar-17 17:17 51.472399 -0.445933 354 88ft 0kts
03-Mar-17 17:18 51.472157 -0.445932 27 88ft 0kts
03-Mar-17 17:19 51.472157 -0.445932 27 88ft 0kts
03-Mar-17 17:20 51.472157 -0.445932 27 88ft 0kts
03-Mar-17 17:21 51.472195 -0.445901 27 88ft 1kts
03-Mar-17 17:22 51.474781 -0.445440 37 88ft 8kts
03-Mar-17 17:23 51.475045 -0.442036 90 88ft 12kts
03-Mar-17 17:24 51.475911 -0.439937 80 88ft 6kts
03-Mar-17 17:25 51.476964 -0.433766 33 88ft 16kts
03-Mar-17 17:26 51.477668 -0.434556 268 88ft 0kts
03-Mar-17 17:27 51.477613 -0.450799 270 88ft 136kts
03-Mar-17 17:28 51.478587 -0.523012 255 2134ft 168kts
03-Mar-17 17:29 51.455743 -0.611309 215 2897ft 266kts
03-Mar-17 17:30 51.385889 -0.599651 158 5645ft 285kts
03-Mar-17 17:31 51.313603 -0.557673 161 5986ft 281kts
03-Mar-17 17:32 51.238217 -0.567890 193 5984ft 278kts
03-Mar-17 17:33 51.162729 -0.591386 192 5986ft 278kts
03-Mar-17 17:34 51.086269 -0.614934 192 5339ft 279kts
03-Mar-17 17:35 51.014963 -0.579959 149 7905ft 289kts
03-Mar-17 17:36 50.945221 -0.508361 147 10139ft 330kts
03-Mar-17 17:37 50.873075 -0.432155 146 11422ft 388kts
03-Mar-17 17:38 50.783821 -0.337875 146 14446ft 403kts
03-Mar-17 17:39 50.689051 -0.238100 146 17225ft 420kts
03-Mar-17 17:40 50.590222 -0.134440 146 19802ft 437kts
03-Mar-17 17:41 50.487420 -0.027169 147 22123ft 455kts
03-Mar-17 17:42 50.380397 0.083842 149 24171ft 474kts
03-Mar-17 17:43 50.269064 0.198481 149 26209ft 489kts
03-Mar-17 17:44 50.154816 0.315814 149 28069ft 503kts
03-Mar-17 17:45 50.037144 0.436414 149 29895ft 513kts
03-Mar-17 17:46 49.919568 0.556215 150 32222ft 507kts
03-Mar-17 17:47 49.818135 0.669173 145 34061ft 506kts
03-Mar-17 17:48 49.720788 0.790687 144 35685ft 502kts
03-Mar-17 17:49 49.614264 0.923574 144 36451ft 505kts
03-Mar-17 17:50 49.504856 1.059339 146 36427ft 507kts
03-Mar-17 17:51 49.396319 1.194183 144 36415ft 509kts
03-Mar-17 17:52 49.286723 1.328815 144 36431ft 508kts
03-Mar-17 17:53 49.177120 1.462676 144 36462ft 506kts
03-Mar-17 17:54 49.067206 1.596130 144 36443ft 507kts
03-Mar-17 17:55 48.967985 1.716050 145 36464ft 505kts
03-Mar-17 17:56 48.865304 1.839311 145 36451ft 505kts
03-Mar-17 17:57 48.760518 1.964431 145 36477ft 505kts
03-Mar-17 17:58 48.650735 2.094840 145 36494ft 504kts
03-Mar-17 17:59 48.544713 2.229143 138 36487ft 508kts
03-Mar-17 18:00 48.446271 2.377572 138 36480ft 504kts
03-Mar-17 18:01 48.347047 2.527153 138 36497ft 507kts
03-Mar-17 18:02 48.242490 2.650495 155 36503ft 497kts
03-Mar-17 18:03 48.151757 2.782829 136 36495ft 509kts
03-Mar-17 18:04 48.057862 2.940548 135 36512ft 509kts
03-Mar-17 18:05 47.964519 3.097047 135 36543ft 508kts
03-Mar-17 18:06 47.881958 3.234662 136 36538ft 509kts
03-Mar-17 18:07 47.788007 3.390320 136 36533ft 507kts
03-Mar-17 18:08 47.694077 3.545180 136 36534ft 507kts
03-Mar-17 18:09 47.607571 3.687062 136 36538ft 506kts
03-Mar-17 18:10 47.515839 3.836720 137 36533ft 505kts
03-Mar-17 18:11 47.421503 3.989668 137 36533ft 505kts
03-Mar-17 18:12 47.327206 4.141678 137 36620ft 505kts
03-Mar-17 18:13 47.233173 4.292405 137 36616ft 504kts
03-Mar-17 18:14 47.138847 4.442751 137 36613ft 504kts
03-Mar-17 18:15 47.043902 4.593233 137 36604ft 504kts
03-Mar-17 18:16 46.953186 4.736339 137 36583ft 503kts
03-Mar-17 18:17 46.873323 4.862320 139 36957ft 473kts
03-Mar-17 18:18 46.790262 4.991065 139 36611ft 468kts
03-Mar-17 18:19 46.701239 5.129320 139 36622ft 467kts
03-Mar-17 18:20 46.618823 5.276194 133 36619ft 473kts
03-Mar-17 18:21 46.539719 5.428265 133 36622ft 474kts
03-Mar-17 18:22 46.460264 5.580263 133 36618ft 474kts
03-Mar-17 18:23 46.382935 5.727537 133 36631ft 473kts
03-Mar-17 18:24 46.306265 5.872902 133 36648ft 474kts
03-Mar-17 18:25 46.219186 6.012507 138 36651ft 469kts
03-Mar-17 18:26 46.131508 6.151312 138 36631ft 470kts
03-Mar-17 18:27 46.043593 6.289870 138 36636ft 470kts
03-Mar-17 18:28 45.955978 6.427263 138 36633ft 469kts
03-Mar-17 18:29 45.876915 6.550555 138 36608ft 470kts
03-Mar-17 18:30 45.798138 6.672844 138 36691ft 469kts
03-Mar-17 18:31 45.713598 6.803714 139 36620ft 469kts
03-Mar-17 18:32 45.625024 6.940007 139 36755ft 471kts
03-Mar-17 18:33 45.536296 7.075856 139 36829ft 471kts
03-Mar-17 18:34 45.451869 7.218119 135 36834ft 473kts
03-Mar-17 18:35 45.367707 7.360743 135 36880ft 474kts
03-Mar-17 18:36 45.283024 7.503616 135 36972ft 475kts
03-Mar-17 18:37 45.199940 7.645759 135 36973ft 475kts
03-Mar-17 18:38 45.131877 7.761794 135 37051ft 475kts
03-Mar-17 18:39 45.047230 7.905329 135 35486ft 477kts
03-Mar-17 18:40 44.964177 8.045440 136 32100ft 461kts
03-Mar-17 18:41 44.892918 8.164986 136 30063ft 466kts
03-Mar-17 18:42 44.813015 8.300503 135 27935ft 468kts
03-Mar-17 18:43 44.733156 8.436097 135 25521ft 461kts
03-Mar-17 18:44 44.655491 8.567362 135 23285ft 430kts
03-Mar-17 18:45 44.579548 8.657920 168 21190ft 396kts
03-Mar-17 18:46 44.475618 8.683356 176 19125ft 384kts
03-Mar-17 18:47 44.371097 8.699924 176 17089ft 370kts
03-Mar-17 18:48 44.276112 8.714351 177 15230ft 323kts
03-Mar-17 18:49 44.193204 8.725357 177 13610ft 283kts
03-Mar-17 18:50 44.137888 8.801381 129 12092ft 299kts
03-Mar-17 18:51 44.100162 8.901910 115 11296ft 295kts
03-Mar-17 18:52 44.079225 9.011683 102 10144ft 297kts
03-Mar-17 18:53 44.077126 9.126483 90 8812ft 300kts
03-Mar-17 18:54 44.094274 9.238830 74 7609ft 298kts
03-Mar-17 18:55 44.134201 9.336879 36 6425ft 302kts
03-Mar-17 18:56 44.207342 9.338920 314 5475ft 244kts
03-Mar-17 18:57 44.253521 9.276584 313 4901ft 213kts
03-Mar-17 18:58 44.295485 9.226231 318 4261ft 200kts
03-Mar-17 18:59 44.333688 9.173999 289 4004ft 181kts
03-Mar-17 19:00 44.352742 9.109132 280 3878ft 173kts
03-Mar-17 19:01 44.367625 9.040874 282 2961ft 190kts
03-Mar-17 19:02 44.383182 8.972304 287 1831ft 171kts
03-Mar-17 19:03 44.396109 8.914774 289 954ft 141kts
03-Mar-17 19:04 44.408127 8.860948 286 113ft 144kts
03-Mar-17 19:05 44.414584 8.831061 324 21ft 15kts
03-Mar-17 19:06 44.414943 8.834515 104 20ft 17kts
03-Mar-17 19:07 44.413446 8.842201 104 21ft 17kts
03-Mar-17 19:08 44.414124 8.846205 84 21ft 10kts
03-Mar-17 19:09 44.414122 8.849006 59 21ft 5kts
03-Mar-17 19:10 44.414281 8.849392 60 21ft 0kts

Navigation Log

Ident Type
Flight plan parsing failed, navigation log unavailable